createdAt,value
2022-09-13T00:00:51.050Z,2.05
2022-09-13T00:05:42.877Z,2.00
2022-09-13T00:10:37.560Z,2.05
2022-09-13T00:15:30.108Z,1.95
2022-09-13T00:20:22.010Z,2.17
2022-09-13T00:25:13.745Z,1.80
2022-09-13T00:30:08.399Z,1.70
2022-09-13T00:35:00.174Z,1.70
2022-09-13T00:39:51.868Z,2.03
2022-09-13T00:45:12.168Z,1.50
2022-09-13T00:50:24.541Z,1.40
2022-09-13T00:55:35.112Z,1.55
2022-09-13T01:00:26.948Z,1.88
2022-09-13T01:05:24.132Z,1.50
2022-09-13T01:10:24.088Z,1.60
2022-09-13T01:15:15.970Z,1.70
2022-09-13T01:20:11.387Z,1.60
2022-09-13T01:25:38.108Z,1.70
2022-09-13T01:30:40.453Z,1.70
2022-09-13T01:35:49.557Z,1.58
2022-09-13T01:41:18.028Z,1.65
2022-09-13T01:46:16.976Z,1.50
2022-09-13T01:51:23.254Z,1.80
2022-09-13T01:56:33.017Z,1.77
2022-09-13T02:01:39.128Z,1.88
2022-09-13T02:06:40.371Z,2.10
2022-09-13T02:11:36.818Z,1.90
2022-09-13T02:16:45.059Z,1.95
2022-09-13T02:21:45.736Z,1.95
2022-09-13T02:26:41.713Z,1.85
2022-09-13T02:31:52.717Z,2.17
2022-09-13T02:36:48.688Z,2.00
2022-09-13T02:42:04.413Z,2.10
2022-09-13T02:47:12.095Z,2.55
2022-09-13T02:52:14.040Z,2.00
2022-09-13T02:57:18.543Z,1.70
2022-09-13T03:02:16.492Z,2.10
2022-09-13T03:07:15.735Z,2.00
2022-09-13T03:12:10.488Z,2.00
2022-09-13T03:17:35.949Z,2.00
2022-09-13T03:23:17.834Z,2.47
2022-09-13T03:28:43.010Z,2.65
2022-09-13T03:34:13.845Z,2.47
2022-09-13T03:39:51.738Z,2.35
2022-09-13T03:44:48.504Z,2.40
2022-09-13T03:49:41.240Z,2.53
2022-09-13T03:54:37.456Z,2.65
2022-09-13T03:59:29.138Z,2.28
2022-09-13T04:04:21.228Z,2.40
2022-09-13T04:09:14.116Z,2.40
2022-09-13T04:14:06.350Z,2.60
2022-09-13T04:18:59.258Z,1.95
2022-09-13T04:23:51.254Z,2.20
2022-09-13T04:38:57.206Z,2.27
2022-09-13T04:43:51.214Z,3.00
2022-09-13T04:53:59.972Z,2.60
2022-09-13T04:58:53.168Z,2.60
2022-09-13T05:03:45.767Z,2.80
2022-09-13T05:08:38.355Z,3.00
2022-09-13T05:13:31.409Z,2.63
2022-09-13T05:18:27.500Z,2.42
2022-09-13T05:28:27.572Z,3.38
2022-09-13T05:44:12.598Z,3.30
2022-09-13T05:49:08.052Z,3.40
2022-09-13T05:54:00.021Z,3.30
2022-09-13T05:58:53.595Z,3.22
2022-09-13T06:03:49.798Z,3.15
2022-09-13T06:08:41.739Z,2.80
2022-09-13T06:13:34.938Z,3.20
2022-09-13T06:18:27.689Z,2.58
2022-09-13T06:23:19.542Z,2.50
2022-09-13T06:28:11.298Z,2.55
2022-09-13T06:33:03.640Z,3.05
2022-09-13T06:38:00.158Z,3.25
2022-09-13T06:53:03.983Z,2.92
2022-09-13T06:57:56.124Z,3.63
2022-09-13T07:03:01.001Z,2.88
2022-09-13T07:28:49.609Z,3.00
2022-09-13T07:33:43.876Z,3.22
2022-09-13T07:38:37.545Z,3.20
2022-09-13T07:43:29.713Z,3.22
2022-09-13T07:48:25.282Z,2.80
2022-09-13T07:53:19.165Z,2.80
2022-09-13T07:58:12.477Z,2.28
2022-09-13T08:03:04.342Z,2.95
2022-09-13T08:07:56.230Z,3.40
2022-09-13T08:12:49.428Z,2.60
2022-09-13T08:17:41.143Z,2.90
2022-09-13T08:22:32.893Z,2.80
2022-09-13T08:27:25.897Z,2.90
2022-09-13T08:32:18.662Z,2.38
2022-09-13T08:37:11.682Z,2.40
2022-09-13T08:47:59.616Z,2.55
2022-09-13T08:53:09.379Z,2.50
2022-09-13T08:58:23.633Z,2.20
2022-09-13T09:09:14.903Z,2.08
2022-09-13T09:56:56.693Z,1.75
2022-09-13T10:23:33.835Z,2.22
2022-09-13T10:33:41.193Z,2.17
2022-09-13T10:38:48.605Z,1.88
2022-09-13T10:43:40.919Z,2.10
2022-09-13T10:48:48.202Z,2.00
2022-09-13T10:53:42.940Z,2.00
2022-09-13T10:58:35.038Z,1.73
2022-09-13T11:03:33.225Z,1.50
2022-09-13T11:08:54.800Z,1.63
2022-09-13T11:13:57.897Z,1.55
2022-09-13T11:19:12.074Z,1.50
2022-09-13T11:35:53.882Z,1.40
2022-09-13T11:41:52.884Z,1.42
2022-09-13T11:58:00.933Z,1.55
2022-09-13T12:19:16.970Z,1.55
2022-09-13T12:41:16.784Z,1.30
2022-09-13T12:46:11.433Z,1.77
2022-09-13T12:51:34.988Z,1.80
2022-09-13T12:57:04.645Z,3.42
2022-09-13T13:01:58.356Z,1.90
2022-09-13T13:07:16.825Z,1.60
2022-09-13T13:12:27.982Z,1.88
2022-09-13T13:17:45.442Z,1.45
2022-09-13T13:22:44.071Z,1.55
2022-09-13T13:27:47.651Z,1.70
2022-09-13T13:33:15.156Z,1.33
2022-09-13T13:38:42.446Z,1.73
2022-09-13T13:43:35.156Z,1.70
2022-09-13T13:48:42.597Z,1.60
2022-09-13T13:53:36.840Z,1.50
2022-09-13T13:59:07.506Z,1.40
2022-09-13T14:04:56.145Z,1.70
2022-09-13T14:10:14.334Z,1.75
2022-09-13T14:15:47.878Z,1.20
2022-09-13T14:21:04.333Z,1.13
2022-09-13T14:26:01.353Z,1.30
2022-09-13T14:30:59.603Z,1.10
2022-09-13T14:36:21.673Z,1.20
2022-09-13T14:41:21.381Z,1.10
2022-09-13T14:46:31.828Z,1.17
2022-09-13T18:03:21.915Z,5.45
2022-09-13T18:13:24.322Z,4.65
2022-09-13T19:04:43.537Z,2.65
2022-09-13T19:25:08.321Z,2.53
2022-09-13T19:30:01.233Z,2.60
2022-09-13T19:50:24.693Z,2.33
2022-09-13T20:36:51.821Z,2.45
2022-09-13T20:41:46.216Z,2.65
2022-09-13T21:02:00.117Z,5.22
2022-09-13T21:07:14.633Z,3.60
2022-09-13T21:22:28.857Z,3.30
2022-09-13T21:37:34.102Z,3.55
2022-09-13T21:52:39.606Z,3.30
2022-09-13T22:02:37.335Z,2.50
2022-09-13T22:07:29.526Z,2.67
2022-09-13T22:17:41.754Z,2.60
2022-09-13T22:22:35.095Z,2.40
2022-09-13T22:32:33.767Z,2.20
2022-09-13T22:37:27.869Z,2.50
2022-09-13T22:42:20.496Z,2.20
2022-09-13T22:47:14.492Z,2.70
2022-09-13T22:52:07.202Z,2.85
2022-09-13T22:56:59.522Z,2.72
2022-09-13T23:01:51.387Z,2.97
2022-09-13T23:06:51.908Z,2.80
2022-09-13T23:11:45.070Z,3.53
2022-09-13T23:16:44.087Z,3.53
2022-09-13T23:26:46.000Z,3.22
2022-09-13T23:41:52.999Z,3.55
2022-09-13T23:46:45.120Z,3.22
2022-09-13T23:51:38.321Z,3.40
2022-09-13T23:56:32.091Z,2.88
